Cheyenne Regional Jerry Olson Field
KCYS : now visible

Airfield :











YOU CAN JOIN US ON...

 
LOGIN :

Register | Disclaimer

   EN    FR    IT 

 









Legend :    VFR   Marginal VFR   IFR   Intensive IFR   Very Intensive IFR
Visi :
Ceiling :
>= 8 km
>= 3000ft
5 to 8 km
1000 to 3000 ft
1500m to 5 km
500 to 1000 ft
800 to 1500m
200 to 500 ft
< 800m
< 200 ft
Symbols :   Thunderstorms  Fog  Heavy snow  Heavy precipitations  Wind > 20 kt






- Airport Elevation : 6159 ft
- IATA code : CYS


KCYS - Cheyenne Regional Jerry Olson Field

CURRENT METAR :
  • 240453Z AUTO 29008KT 10SM CLR 13/M03 A3020 RMK AO2 SLP149 T01331033

EXPIRED METARs :
  • 240353Z AUTO 28008KT 10SM FEW095 16/M04 A3022 RMK AO2 SLP153 T01561039
  • 240253Z 27008KT 10SM OVC100 16/M04 A3022 RMK AO2 SLP157 T01611039 53015

TAF KCYS
Valid from the 24 at 00:00 until the 25 at 00:00 UTC


232337Z 2400/2424 32012G20KT P6SM FEW200
FM240200 31008KT P6SM SKC
FM240800 27010KT P6SM SKC
KZDV FIR / North America



MET'MAP, your aeronautical weather chart ! - Copyright ORBIFLY December 2007 - Disclaimer

ORBIFLY MET'MAP TEAM :

Programming & Development : Alexandra Zaïnal
Concept & original design : Baudouin d'Aumeries
Assistance for programming : Marc-Olivier Méhu
Technical & hardware support : Manuel Goepfert

Contact : metmap@orbifly.com




SOURCES & CREDITS :

   NOAA       Earth
Advisory